Time;durP1;ratioP1;P1;durP2;ratioP2;P2;SDS_P1;SDS_P2;PMS_P1;PMS_P2;Temp;Humidity;BMP_temperature;BMP_pressure;BME280_temperature;BME280_humidity;BME280_pressure;Samples;Min_cycle;Max_cycle;Signal;HPM_P1;HPM_P2
2022/01/19 00:01:13;;;;;;;41.53;17.67;;;;;;;1.21;100.00;103307.97;5056430;28;20033;-81
2022/01/19 00:03:38;;;;;;;49.60;18.05;;;;;;;1.13;100.00;103305.00;5063580;28;20395;-81
2022/01/19 00:06:04;;;;;;;43.33;17.90;;;;;;;1.07;100.00;103301.25;5057201;28;20032;-82
2022/01/19 00:08:30;;;;;;;43.30;18.23;;;;;;;1.02;100.00;103297.56;5051508;28;20021;-82
2022/01/19 00:10:56;;;;;;;43.25;17.98;;;;;;;0.97;100.00;103291.31;5051901;28;20024;-82
2022/01/19 00:13:21;;;;;;;46.65;18.30;;;;;;;0.92;100.00;103291.06;5059826;28;20017;-82
2022/01/19 00:15:48;;;;;;;44.33;18.40;;;;;;;0.87;100.00;103291.59;5068031;28;20394;-82
2022/01/19 00:18:16;;;;;;;39.47;15.77;;;;;;;0.82;100.00;103287.94;5061566;28;20036;-82
2022/01/19 00:20:41;;;;;;;38.83;15.48;;;;;;;0.78;100.00;103287.75;5067679;28;20031;-82
2022/01/19 00:23:06;;;;;;;37.60;14.20;;;;;;;0.71;100.00;103284.78;5057150;28;20025;-82
2022/01/19 00:25:32;;;;;;;36.90;14.55;;;;;;;0.65;100.00;103279.31;5050308;28;20277;-82
2022/01/19 00:27:58;;;;;;;34.20;14.38;;;;;;;0.61;100.00;103277.41;5055095;28;20545;-82
2022/01/19 00:30:26;;;;;;;37.17;15.15;;;;;;;0.53;100.00;103260.78;5068880;28;20104;-74
2022/01/19 00:32:51;;;;;;;41.35;15.48;;;;;;;0.49;100.00;103243.53;5041682;28;20020;-74
2022/01/19 00:35:16;;;;;;;35.47;14.85;;;;;;;0.45;100.00;103218.66;5052583;28;20039;-74
2022/01/19 00:37:42;;;;;;;36.75;15.30;;;;;;;0.42;100.00;103208.28;5069688;28;20372;-74
2022/01/19 00:40:10;;;;;;;35.35;14.38;;;;;;;0.36;100.00;103196.94;5052777;28;20025;-74
2022/01/19 00:42:36;;;;;;;36.20;13.52;;;;;;;0.33;100.00;103191.69;5057369;28;20071;-74
2022/01/19 00:45:03;;;;;;;37.53;15.02;;;;;;;0.30;100.00;103188.94;5063929;28;20061;-74
2022/01/19 00:47:28;;;;;;;35.67;15.18;;;;;;;0.24;100.00;103190.28;5053327;28;20052;-75
2022/01/19 00:49:54;;;;;;;38.90;15.27;;;;;;;0.19;100.00;103204.44;5069062;28;20055;-74
2022/01/19 00:52:19;;;;;;;38.95;15.27;;;;;;;0.17;100.00;103223.88;5069470;28;20483;-74
2022/01/19 00:54:45;;;;;;;39.30;15.70;;;;;;;0.10;100.00;103229.41;5047056;28;20025;-74
2022/01/19 00:57:10;;;;;;;36.58;15.35;;;;;;;0.12;100.00;103236.38;5049637;28;20048;-74
2022/01/19 00:59:35;;;;;;;37.05;16.15;;;;;;;0.21;100.00;103243.66;5065396;28;20486;-74
2022/01/19 01:02:02;;;;;;;35.58;14.95;;;;;;;0.29;100.00;103240.75;5059771;28;20345;-74
2022/01/19 01:04:28;;;;;;;44.05;16.27;;;;;;;0.44;100.00;103225.44;5049677;28;20032;-74
2022/01/19 01:06:53;;;;;;;47.50;18.23;;;;;;;0.56;100.00;103221.00;5053162;28;20036;-74
2022/01/19 01:09:19;;;;;;;42.30;16.17;;;;;;;0.66;100.00;103218.19;5049675;28;20029;-74
2022/01/19 01:11:58;;;;;;;44.75;17.42;;;;;;;0.82;100.00;103203.69;5052390;28;20139;-73
2022/01/19 01:17:13;;;;;;;41.42;16.23;;;;;;;0.99;100.00;103182.47;5051169;28;20075;-74
2022/01/19 01:19:38;;;;;;;44.88;16.77;;;;;;;1.09;100.00;103177.94;5041629;28;20481;-74
2022/01/19 01:22:04;;;;;;;44.05;16.80;;;;;;;1.14;100.00;103173.06;5057518;28;20559;-74
2022/01/19 01:24:29;;;;;;;53.13;19.27;;;;;;;1.11;100.00;103162.69;5031208;28;20029;-74
2022/01/19 01:26:55;;;;;;;43.58;16.92;;;;;;;1.05;100.00;103155.59;5040657;28;20070;-74
2022/01/19 01:29:21;;;;;;;45.10;15.98;;;;;;;0.99;100.00;103155.28;5054904;28;20082;-74
2022/01/19 01:31:46;;;;;;;40.25;15.93;;;;;;;0.89;100.00;103144.50;5049728;28;20470;-74
2022/01/19 01:34:11;;;;;;;32.75;15.00;;;;;;;0.76;100.00;103138.72;5051303;28;20025;-74
2022/01/19 01:36:36;;;;;;;40.45;16.80;;;;;;;0.69;100.00;103117.91;5067702;28;20465;-74
2022/01/19 01:39:02;;;;;;;42.25;16.17;;;;;;;0.58;100.00;103102.03;5055917;28;20055;-75
2022/01/19 01:41:29;;;;;;;42.20;15.68;;;;;;;0.50;100.00;103088.00;5049269;28;20047;-74
2022/01/19 01:43:54;;;;;;;43.53;16.77;;;;;;;0.41;100.00;103079.00;5052700;28;20047;-75
2022/01/19 01:46:32;;;;;;;38.58;15.82;;;;;;;0.34;100.00;103070.13;5049063;28;20040;-74
2022/01/19 01:48:58;;;;;;;40.67;15.95;;;;;;;0.27;100.00;103073.16;5059739;28;20028;-74
2022/01/19 01:54:08;;;;;;;44.75;16.30;;;;;;;0.15;100.00;103081.00;5057175;28;20433;-74
2022/01/19 01:56:33;;;;;;;36.85;15.30;;;;;;;0.09;100.00;103075.56;5055961;28;20471;-74
2022/01/19 01:58:59;;;;;;;45.38;16.70;;;;;;;0.03;100.00;103082.00;5059751;28;20231;-73
2022/01/19 02:01:24;;;;;;;46.28;16.30;;;;;;;0.00;100.00;103095.47;5055635;28;20490;-74
2022/01/19 02:03:50;;;;;;;46.50;16.70;;;;;;;-0.02;100.00;103095.38;5057034;28;20032;-73
2022/01/19 02:08:53;;;;;;;44.08;16.40;;;;;;;-0.06;100.00;103098.53;5074110;28;20379;-73
2022/01/19 02:22:35;;;;;;;45.97;16.80;;;;;;;-0.21;100.00;103048.41;5074827;28;20067;-74
2022/01/19 02:25:03;;;;;;;49.55;16.98;;;;;;;-0.25;100.00;103037.16;5042870;28;20021;-74
2022/01/19 02:41:00;;;;;;;40.80;15.63;;;;;;;-0.46;100.00;102998.63;5062581;28;20560;-81
2022/01/19 02:43:28;;;;;;;40.72;15.50;;;;;;;-0.46;100.00;103003.72;5069589;28;20048;-81
2022/01/19 02:51:38;;;;;;;49.55;15.75;;;;;;;-0.63;100.00;102975.56;5031657;28;20040;-81
2022/01/19 02:54:03;;;;;;;47.17;16.75;;;;;;;-0.65;100.00;102965.28;5057347;28;20041;-80
2022/01/19 02:56:32;;;;;;;44.97;16.20;;;;;;;-0.69;100.00;102963.38;5058601;28;20070;-81
2022/01/19 02:59:11;;;;;;;47.85;16.42;;;;;;;-0.70;100.00;102953.97;5068529;28;20511;-80
2022/01/19 03:09:46;;;;;;;49.65;15.98;;;;;;;-0.82;100.00;102921.03;5071479;28;20539;-74
2022/01/19 03:12:11;;;;;;;51.03;15.70;;;;;;;-0.85;100.00;102910.72;5062887;28;20057;-74
2022/01/19 03:14:37;;;;;;;43.25;15.13;;;;;;;-0.87;100.00;102901.22;5055554;28;20053;-74
2022/01/19 03:17:04;;;;;;;45.97;15.90;;;;;;;-0.89;100.00;102906.22;5051547;28;20040;-74
2022/01/19 03:19:31;;;;;;;43.58;15.50;;;;;;;-0.89;100.00;102900.28;5068018;28;20073;-74
2022/01/19 03:21:57;;;;;;;47.63;17.15;;;;;;;-0.93;100.00;102909.41;5070824;28;20083;-74
2022/01/19 03:24:22;;;;;;;44.55;16.35;;;;;;;-0.96;100.00;102895.63;5057567;28;20028;-74
2022/01/19 03:26:47;;;;;;;52.75;17.30;;;;;;;-0.96;100.00;102904.16;5057918;28;20017;-74
2022/01/19 03:29:13;;;;;;;47.55;16.60;;;;;;;-0.91;100.00;102891.69;5053368;28;20156;-74
2022/01/19 03:31:38;;;;;;;49.45;15.80;;;;;;;-0.93;100.00;102888.16;5067248;28;20118;-74
2022/01/19 03:34:05;;;;;;;49.58;17.25;;;;;;;-0.95;100.00;102892.28;5065498;28;20451;-74
2022/01/19 03:36:31;;;;;;;50.50;17.70;;;;;;;-1.00;100.00;102891.16;5052443;28;20037;-74
2022/01/19 03:38:57;;;;;;;49.95;16.30;;;;;;;-1.03;100.00;102884.25;5070666;28;20020;-74
2022/01/19 03:41:22;;;;;;;50.40;16.67;;;;;;;-1.05;100.00;102880.72;5070759;28;20036;-74
2022/01/19 03:43:48;;;;;;;44.45;16.40;;;;;;;-1.02;100.00;102882.53;5060534;28;20047;-74
2022/01/19 03:46:14;;;;;;;50.30;16.88;;;;;;;-1.04;100.00;102879.94;5050933;28;20020;-74
2022/01/19 03:48:46;;;;;;;54.33;17.58;;;;;;;-1.04;100.00;102858.69;5060485;28;20139;-74
2022/01/19 03:51:12;;;;;;;51.08;17.23;;;;;;;-1.01;100.00;102861.41;5069011;28;20056;-74
2022/01/19 03:53:38;;;;;;;49.47;18.10;;;;;;;-1.03;100.00;102848.63;5070794;28;20132;-74
2022/01/19 03:56:04;;;;;;;50.60;17.60;;;;;;;-0.98;100.00;102853.94;5070875;28;20071;-74
2022/01/19 03:58:30;;;;;;;49.05;17.13;;;;;;;-0.99;100.00;102852.19;5070319;28;20139;-74
2022/01/19 04:00:57;;;;;;;49.63;17.27;;;;;;;-0.99;100.00;102847.97;5054936;28;20127;-74
2022/01/19 04:03:35;;;;;;;54.15;17.60;;;;;;;-0.99;100.00;102842.00;5039953;28;20021;-74
2022/01/19 04:06:14;;;;;;;53.45;16.90;;;;;;;-0.97;100.00;102833.69;5069651;28;20020;-74
2022/01/19 04:08:40;;;;;;;53.92;17.85;;;;;;;-0.96;100.00;102835.44;5070283;28;20432;-74
2022/01/19 04:11:05;;;;;;;49.10;18.02;;;;;;;-0.97;100.00;102831.13;5052389;28;20047;-74
2022/01/19 04:13:44;;;;;;;48.42;17.48;;;;;;;-0.99;100.00;102826.75;5059048;28;20052;-74
2022/01/19 04:16:09;;;;;;;45.20;15.50;;;;;;;-0.97;100.00;102825.16;5051813;28;20024;-74
2022/01/19 04:18:35;;;;;;;43.03;16.50;;;;;;;-1.00;100.00;102827.53;5066334;28;20039;-74
2022/01/19 04:21:02;;;;;;;42.63;15.88;;;;;;;-1.03;100.00;102827.38;5060234;28;20110;-74
2022/01/19 04:23:27;;;;;;;45.83;16.42;;;;;;;-1.05;100.00;102824.75;5044187;28;20082;-74
2022/01/19 04:25:52;;;;;;;49.15;16.70;;;;;;;-1.07;100.00;102833.06;5066676;28;20024;-74
2022/01/19 04:28:17;;;;;;;45.10;16.10;;;;;;;-1.10;100.00;102838.88;5067486;28;20380;-74
2022/01/19 04:30:43;;;;;;;44.67;16.13;;;;;;;-1.13;100.00;102832.72;5054855;28;20507;-74
2022/01/19 04:33:12;;;;;;;47.28;16.25;;;;;;;-1.18;100.00;102836.69;5054764;28;20128;-74
2022/01/19 04:35:50;;;;;;;46.38;16.38;;;;;;;-1.20;100.00;102829.84;5069673;28;20037;-74
2022/01/19 04:46:49;;;;;;;48.77;18.07;;;;;;;-1.29;100.00;102814.06;5069559;28;20039;-74
2022/01/19 05:05:13;;;;;;;50.95;18.20;;;;;;;-1.22;100.00;102807.66;5057559;28;20044;-73
2022/01/19 05:07:44;;;;;;;57.65;19.65;;;;;;;-1.22;100.00;102807.66;5061957;28;20155;-74
2022/01/19 05:15:37;;;;;;;57.80;19.40;;;;;;;-1.05;100.00;102814.56;5052216;28;20096;-74
2022/01/19 05:18:03;;;;;;;61.63;21.05;;;;;;;-0.87;100.00;102822.31;5062708;28;20099;-74
2022/01/19 05:20:29;;;;;;;67.20;21.63;;;;;;;-0.71;100.00;102819.81;5054283;28;20146;-74
2022/01/19 05:22:55;;;;;;;62.97;21.10;;;;;;;-0.59;100.00;102817.91;5061455;28;20418;-74
2022/01/19 05:25:20;;;;;;;63.47;21.10;;;;;;;-0.49;100.00;102819.28;5064051;28;20039;-74
2022/01/19 05:27:45;;;;;;;77.78;23.60;;;;;;;-0.42;100.00;102806.97;5064372;28;20082;-74
2022/01/19 05:30:12;;;;;;;75.03;22.10;;;;;;;-0.32;100.00;102810.84;5053424;28;20102;-74
2022/01/19 05:32:37;;;;;;;71.75;22.92;;;;;;;-0.20;100.00;102815.69;5053012;28;20438;-74
2022/01/19 05:35:03;;;;;;;90.53;24.65;;;;;;;-0.09;100.00;102804.41;5055897;28;20542;-74
2022/01/19 05:37:30;;;;;;;86.72;25.42;;;;;;;0.02;100.00;102803.25;5062539;28;20035;-74
2022/01/19 05:39:55;;;;;;;83.38;25.80;;;;;;;0.14;100.00;102792.78;5063462;28;20194;-75
2022/01/19 05:42:20;;;;;;;80.72;23.15;;;;;;;0.22;100.00;102804.25;5061452;28;20555;-74
2022/01/19 05:44:46;;;;;;;82.65;24.15;;;;;;;0.31;100.00;102794.50;5056170;28;20040;-74
2022/01/19 05:47:14;;;;;;;74.63;22.10;;;;;;;0.41;100.00;102794.16;5065656;28;20082;-74
2022/01/19 05:49:39;;;;;;;73.57;21.77;;;;;;;0.49;100.00;102795.41;5055980;28;20102;-74
2022/01/19 05:52:06;;;;;;;74.57;21.63;;;;;;;0.55;100.00;102793.16;5062088;28;20325;-74
2022/01/19 05:54:32;;;;;;;71.40;22.00;;;;;;;0.61;100.00;102790.03;5063297;28;20559;-74
2022/01/19 05:56:58;;;;;;;78.55;23.52;;;;;;;0.64;100.00;102788.50;5066331;28;20016;-75
2022/01/19 05:59:24;;;;;;;68.25;21.70;;;;;;;0.70;100.00;102788.78;5049815;28;20394;-75
2022/01/19 06:01:50;;;;;;;59.75;20.88;;;;;;;0.73;100.00;102788.94;5063937;28;20099;-74
2022/01/19 06:04:15;;;;;;;61.10;20.77;;;;;;;0.76;100.00;102786.53;5053804;28;20124;-74
2022/01/19 06:06:41;;;;;;;65.38;20.67;;;;;;;0.82;100.00;102792.75;5057869;28;20060;-74
2022/01/19 06:09:21;;;;;;;65.60;21.27;;;;;;;0.85;100.00;102780.97;5066625;28;20020;-74
2022/01/19 06:11:46;;;;;;;61.20;20.25;;;;;;;0.88;100.00;102772.59;5067177;28;20023;-74
2022/01/19 06:14:11;;;;;;;55.45;20.10;;;;;;;0.90;100.00;102774.41;5058114;28;20036;-74
2022/01/19 06:16:36;;;;;;;59.20;19.35;;;;;;;0.90;100.00;102769.31;5055361;28;20025;-74
2022/01/19 06:19:02;;;;;;;55.33;19.10;;;;;;;0.93;100.00;102774.56;5064509;28;20017;-74
2022/01/19 06:21:27;;;;;;;55.50;18.55;;;;;;;0.96;100.00;102778.91;5068021;28;20035;-74
2022/01/19 06:23:52;;;;;;;57.80;19.88;;;;;;;0.95;100.00;102770.41;5050160;28;20029;-74
2022/01/19 06:26:18;;;;;;;56.30;20.23;;;;;;;0.97;100.00;102761.13;5066454;28;20021;-74
2022/01/19 06:28:43;;;;;;;60.95;19.77;;;;;;;1.00;100.00;102750.19;5049035;28;20502;-74
2022/01/19 06:31:08;;;;;;;58.10;21.05;;;;;;;1.00;100.00;102748.50;5054526;28;20033;-74
2022/01/19 06:33:34;;;;;;;54.45;19.80;;;;;;;1.00;100.00;102742.53;5045896;28;20016;-74
2022/01/19 06:35:59;;;;;;;56.90;19.50;;;;;;;1.03;100.00;102742.66;5071805;28;20036;-74
2022/01/19 06:38:24;;;;;;;56.53;20.15;;;;;;;1.04;100.00;102750.38;5069192;28;20036;-74
2022/01/19 06:40:50;;;;;;;59.10;20.02;;;;;;;1.05;100.00;102743.59;5072127;28;20024;-74
2022/01/19 06:43:15;;;;;;;57.00;20.15;;;;;;;1.08;100.00;102748.88;5049769;28;20052;-74
2022/01/19 06:45:40;;;;;;;53.70;18.90;;;;;;;1.09;100.00;102738.69;5064211;28;20029;-74
2022/01/19 06:48:06;;;;;;;51.75;19.70;;;;;;;1.08;100.00;102733.53;5064395;28;20048;-74
2022/01/19 06:50:31;;;;;;;53.55;20.25;;;;;;;1.13;100.00;102725.28;5043577;28;20057;-74
2022/01/19 06:52:57;;;;;;;57.25;19.38;;;;;;;1.15;100.00;102721.13;5060154;28;20028;-74
2022/01/19 06:55:22;;;;;;;52.90;20.17;;;;;;;1.17;100.00;102726.28;5072328;28;20035;-73
2022/01/19 06:57:49;;;;;;;52.22;19.95;;;;;;;1.18;100.00;102716.13;5061681;28;20463;-74
2022/01/19 07:00:15;;;;;;;51.72;18.88;;;;;;;1.19;100.00;102706.78;5072176;28;20096;-74
2022/01/19 07:02:40;;;;;;;56.35;20.20;;;;;;;1.21;100.00;102705.19;5071192;28;20027;-73
2022/01/19 07:05:06;;;;;;;50.92;18.77;;;;;;;1.24;100.00;102705.31;5071534;28;20032;-74
2022/01/19 07:07:31;;;;;;;49.58;19.35;;;;;;;1.26;100.00;102705.38;5069486;28;20097;-74
2022/01/19 07:09:57;;;;;;;60.70;19.50;;;;;;;1.28;100.00;102706.34;5068374;28;20071;-74
2022/01/19 07:12:26;;;;;;;51.35;19.80;;;;;;;1.32;100.00;102708.22;5065389;28;20032;-74
2022/01/19 07:14:51;;;;;;;55.35;19.90;;;;;;;1.31;100.00;102702.22;5043672;28;20077;-74
2022/01/19 07:17:16;;;;;;;52.63;18.75;;;;;;;1.35;100.00;102706.69;5070090;28;20062;-74
2022/01/19 07:19:42;;;;;;;52.08;19.63;;;;;;;1.35;100.00;102695.56;5070610;28;20024;-74
2022/01/19 07:22:07;;;;;;;53.60;19.42;;;;;;;1.39;100.00;102692.34;5065373;28;20478;-74
2022/01/19 07:24:32;;;;;;;50.35;18.60;;;;;;;1.40;100.00;102701.75;5059224;28;20025;-74
2022/01/19 07:26:58;;;;;;;46.53;18.25;;;;;;;1.40;100.00;102696.66;5070291;28;20174;-74
2022/01/19 07:29:24;;;;;;;45.30;18.90;;;;;;;1.42;100.00;102693.38;5070826;28;20024;-74
2022/01/19 07:31:50;;;;;;;45.47;18.00;;;;;;;1.43;100.00;102684.84;5070048;28;20029;-74
2022/01/19 07:34:15;;;;;;;51.20;19.17;;;;;;;1.47;100.00;102681.66;5036457;28;20043;-74
2022/01/19 07:36:41;;;;;;;49.22;19.15;;;;;;;1.50;100.00;102679.22;5069911;28;20021;-74
2022/01/19 07:39:08;;;;;;;49.00;18.40;;;;;;;1.51;100.00;102678.41;5071060;28;20650;-74
2022/01/19 07:41:33;;;;;;;48.00;18.40;;;;;;;1.53;100.00;102684.47;5052330;28;20124;-74
2022/01/19 07:43:58;;;;;;;43.55;17.45;;;;;;;1.54;100.00;102675.13;5066131;28;20119;-74
2022/01/19 07:46:24;;;;;;;43.05;17.63;;;;;;;1.58;100.00;102682.97;5068138;28;20032;-74
2022/01/19 07:48:49;;;;;;;46.03;17.75;;;;;;;1.59;100.00;102677.06;5063736;28;20399;-74
2022/01/19 07:51:15;;;;;;;44.50;17.05;;;;;;;1.62;100.00;102684.00;5062993;28;20063;-74
2022/01/19 07:53:40;;;;;;;43.55;17.55;;;;;;;1.65;100.00;102681.53;5068391;28;20042;-74
2022/01/19 07:56:06;;;;;;;42.72;17.58;;;;;;;1.67;100.00;102689.28;5069172;28;20482;-74
2022/01/19 07:58:31;;;;;;;43.58;17.52;;;;;;;1.67;100.00;102677.38;5048568;28;20441;-75
2022/01/19 08:00:57;;;;;;;46.25;17.02;;;;;;;1.71;100.00;102673.25;5047130;28;20036;-75
2022/01/19 08:03:23;;;;;;;42.13;16.67;;;;;;;1.74;100.00;102669.16;5067152;28;20021;-75
2022/01/19 08:05:49;;;;;;;42.78;16.42;;;;;;;1.77;100.00;102673.53;5058364;28;20447;-75
2022/01/19 08:08:14;;;;;;;42.40;17.38;;;;;;;1.79;100.00;102664.22;5067931;28;20029;-75
2022/01/19 08:10:42;;;;;;;45.78;16.73;;;;;;;1.82;100.00;102666.91;5056754;28;20104;-75
2022/01/19 08:13:08;;;;;;;42.33;16.73;;;;;;;1.81;100.00;102663.50;5063276;28;20024;-75
2022/01/19 08:15:33;;;;;;;44.22;17.10;;;;;;;1.85;100.00;102656.81;5067893;28;20035;-75
2022/01/19 08:17:58;;;;;;;40.53;16.55;;;;;;;1.86;100.00;102653.44;5068155;28;20108;-75
2022/01/19 08:20:24;;;;;;;42.70;16.30;;;;;;;1.83;100.00;102643.97;5056906;28;20060;-75
2022/01/19 08:22:49;;;;;;;41.67;15.98;;;;;;;1.88;100.00;102647.59;5065067;28;20032;-75
2022/01/19 08:25:14;;;;;;;39.42;15.85;;;;;;;1.90;100.00;102653.66;5066169;28;20036;-75
2022/01/19 08:27:40;;;;;;;39.90;16.70;;;;;;;1.94;100.00;102649.50;5049566;28;20032;-75
2022/01/19 08:30:08;;;;;;;39.35;16.40;;;;;;;1.93;100.00;102647.75;5066889;28;20032;-75
2022/01/19 08:32:36;;;;;;;38.95;16.27;;;;;;;1.95;100.00;102646.16;5054938;28;20317;-75
2022/01/19 08:35:06;;;;;;;42.17;17.00;;;;;;;1.98;100.00;102647.13;5068510;28;20032;-75
2022/01/19 08:37:31;;;;;;;44.28;16.65;;;;;;;1.99;100.00;102641.22;5049851;28;20025;-75
2022/01/19 08:39:57;;;;;;;40.75;16.15;;;;;;;2.02;100.00;102642.16;5047320;28;20047;-75
2022/01/19 08:42:23;;;;;;;41.00;15.70;;;;;;;2.03;100.00;102634.56;5069514;28;20052;-75
2022/01/19 08:44:48;;;;;;;39.95;15.57;;;;;;;2.05;100.00;102630.34;5069068;28;20082;-76
2022/01/19 08:47:14;;;;;;;40.90;15.98;;;;;;;2.11;100.00;102632.31;5067537;28;20136;-76
2022/01/19 08:49:39;;;;;;;41.92;16.48;;;;;;;2.11;100.00;102633.19;5057570;28;20533;-75
2022/01/19 08:52:05;;;;;;;37.78;16.73;;;;;;;2.13;100.00;102628.09;5068267;28;20109;-76
2022/01/19 08:54:31;;;;;;;42.10;15.90;;;;;;;2.15;100.00;102623.94;5069026;28;20402;-76
2022/01/19 08:56:59;;;;;;;40.05;16.70;;;;;;;2.15;100.00;102614.56;5040078;28;20016;-76
2022/01/19 08:59:25;;;;;;;43.08;16.17;;;;;;;2.19;100.00;102607.88;5068852;28;20187;-76
2022/01/19 09:01:50;;;;;;;38.90;15.70;;;;;;;2.22;100.00;102606.31;5068677;28;20368;-75
2022/01/19 09:04:15;;;;;;;44.00;17.42;;;;;;;2.25;100.00;102608.13;5068980;28;20474;-76
2022/01/19 09:06:41;;;;;;;39.47;15.57;;;;;;;2.24;100.00;102606.38;5053472;28;20023;-76
2022/01/19 09:09:06;;;;;;;40.05;16.73;;;;;;;2.24;100.00;102604.69;5063700;28;20035;-76
2022/01/19 09:11:31;;;;;;;39.22;16.17;;;;;;;2.26;100.00;102597.94;5067612;28;20040;-76
2022/01/19 09:13:57;;;;;;;39.58;15.32;;;;;;;2.30;100.00;102594.69;5060507;28;20384;-76
2022/01/19 09:16:22;;;;;;;39.72;16.02;;;;;;;2.32;100.00;102594.75;5056567;28;20044;-76
2022/01/19 09:18:48;;;;;;;35.88;15.15;;;;;;;2.34;100.00;102588.88;5068117;28;20467;-76
2022/01/19 09:21:13;;;;;;;39.10;15.65;;;;;;;2.39;100.00;102589.03;5068626;28;20036;-76
2022/01/19 09:23:38;;;;;;;36.83;15.30;;;;;;;2.41;100.00;102592.53;5068882;28;20028;-76
2022/01/19 09:26:04;;;;;;;39.58;15.80;;;;;;;2.43;100.00;102596.03;5049907;28;20020;-76
2022/01/19 09:28:30;;;;;;;39.42;16.30;;;;;;;2.42;100.00;102578.06;5062118;28;20024;-84
2022/01/19 09:31:01;;;;;;;38.10;15.48;;;;;;;2.46;100.00;102585.88;5037766;28;20021;-84
2022/01/19 09:33:30;;;;;;;40.85;15.73;;;;;;;2.48;100.00;102579.16;5049877;28;20495;-85
2022/01/19 09:38:51;;;;;;;38.17;16.10;;;;;;;2.53;100.00;102569.06;5065528;28;20409;-85
2022/01/19 09:41:19;;;;;;;39.80;16.17;;;;;;;2.55;100.00;102563.22;5061792;28;20066;-85
2022/01/19 09:43:44;;;;;;;41.38;15.95;;;;;;;2.57;100.00;102565.84;5037662;28;20087;-85
2022/01/19 09:46:10;;;;;;;42.00;15.50;;;;;;;2.57;100.00;102555.59;5058227;28;20098;-85
2022/01/19 09:48:35;;;;;;;39.83;16.45;;;;;;;2.57;100.00;102553.91;5062868;28;20430;-85
2022/01/19 09:51:00;;;;;;;38.92;16.17;;;;;;;2.61;100.00;102552.31;5065630;28;20028;-84
2022/01/19 09:53:26;;;;;;;36.30;15.60;;;;;;;2.65;100.00;102551.63;5068449;28;20033;-85
2022/01/19 09:55:51;;;;;;;37.08;15.05;;;;;;;2.65;100.00;102544.81;5067512;28;20326;-84
2022/01/19 09:58:21;;;;;;;37.20;14.85;;;;;;;2.67;100.00;102532.94;5058512;28;20028;-75
2022/01/19 10:00:47;;;;;;;37.97;15.30;;;;;;;2.72;100.00;102525.44;5068503;28;20047;-75
2022/01/19 10:03:20;;;;;;;40.67;16.55;;;;;;;2.77;100.00;102524.75;5068562;28;20364;-75
2022/01/19 10:05:56;;;;;;;36.65;15.00;;;;;;;2.82;100.00;102522.34;5048112;28;20062;-75
2022/01/19 10:08:50;;;;;;;35.15;14.90;;;;;;;2.87;99.78;102528.50;5038316;28;20403;-76
2022/01/19 10:17:08;;;;;;;38.28;15.32;;;;;;;2.95;99.31;102529.63;5060502;28;20515;-74
2022/01/19 10:19:41;;;;;;;35.78;15.65;;;;;;;2.96;99.05;102528.81;5069762;28;20077;-74
2022/01/19 10:22:31;;;;;;;36.78;15.32;;;;;;;2.98;99.13;102528.88;5062525;28;20415;-73
2022/01/19 10:25:01;;;;;;;39.22;15.18;;;;;;;2.98;99.39;102516.09;5068898;28;20028;-74
2022/01/19 10:27:26;;;;;;;39.65;15.80;;;;;;;3.01;99.21;102513.59;5065535;28;20070;-74
2022/01/19 10:30:12;;;;;;;38.00;16.33;;;;;;;3.04;99.24;102504.34;5052700;28;20040;-81
2022/01/19 10:32:40;;;;;;;33.08;14.68;;;;;;;3.10;98.62;102504.56;5067900;28;20025;-81
2022/01/19 10:35:29;;;;;;;39.17;15.98;;;;;;;3.15;98.19;102492.75;5063603;28;20035;-81
2022/01/19 10:38:06;;;;;;;37.50;14.77;;;;;;;3.16;98.77;102489.38;5070328;28;20107;-81
2022/01/19 10:40:33;;;;;;;38.92;15.32;;;;;;;3.21;98.23;102493.81;5062613;28;20032;-81
2022/01/19 10:42:58;;;;;;;34.65;14.90;;;;;;;3.25;98.25;102485.38;5063381;28;20040;-81
2022/01/19 10:45:24;;;;;;;39.35;15.52;;;;;;;3.26;98.27;102484.56;5058609;28;20029;-81
2022/01/19 10:47:56;;;;;;;36.67;15.60;;;;;;;3.33;97.99;102487.38;5068827;28;20024;-81
2022/01/19 10:50:30;;;;;;;34.70;14.65;;;;;;;3.40;97.65;102489.31;5046834;28;20161;-81
2022/01/19 10:53:04;;;;;;;37.08;14.50;;;;;;;3.40;98.13;102481.63;5065331;28;20099;-81
2022/01/19 10:55:38;;;;;;;34.00;14.75;;;;;;;3.44;97.96;102485.16;5052311;28;20029;-81
2022/01/19 10:58:11;;;;;;;34.80;15.60;;;;;;;3.45;97.92;102476.63;5062911;28;20029;-81
2022/01/19 11:00:36;;;;;;;32.95;15.63;;;;;;;3.43;98.13;102465.47;5055276;28;20036;-74
2022/01/19 11:03:26;;;;;;;36.80;14.95;;;;;;;3.44;97.68;102460.38;5063930;28;20029;-74
2022/01/19 11:05:59;;;;;;;28.23;11.88;;;;;;;3.45;97.83;102461.25;5068765;28;20402;-74
2022/01/19 11:08:27;;;;;;;34.22;14.68;;;;;;;3.47;97.95;102455.38;5061337;28;20039;-74
2022/01/19 11:10:54;;;;;;;37.33;15.35;;;;;;;3.49;97.96;102451.13;5070157;28;20028;-75
2022/01/19 11:13:33;;;;;;;36.00;14.27;;;;;;;3.55;97.86;102447.88;5053605;28;20048;-75
2022/01/19 11:16:00;;;;;;;34.15;14.75;;;;;;;3.55;98.21;102437.63;5071410;28;20035;-75
2022/01/19 11:18:29;;;;;;;36.53;15.88;;;;;;;3.58;97.71;102438.63;5069290;28;20162;-75
2022/01/19 11:20:57;;;;;;;38.35;15.57;;;;;;;3.59;97.75;102444.63;5049309;28;20027;-75
2022/01/19 11:24:07;;;;;;;37.13;16.70;;;;;;;3.60;97.87;102441.22;5070977;28;20028;-76
2022/01/19 11:26:35;;;;;;;33.38;14.80;;;;;;;3.56;97.84;102435.13;5047251;28;20048;-75
2022/01/19 11:29:21;;;;;;;36.35;15.05;;;;;;;3.60;97.90;102425.84;5052218;28;20040;-75
2022/01/19 11:31:50;;;;;;;36.90;15.40;;;;;;;3.63;96.67;102420.78;5043604;28;20394;-75
2022/01/19 11:34:38;;;;;;;33.50;14.80;;;;;;;3.57;97.67;102405.22;5063953;28;20059;-74
2022/01/19 11:37:04;;;;;;;36.85;15.35;;;;;;;3.57;97.99;102394.97;5068886;28;20403;-75
2022/01/19 11:39:30;;;;;;;36.42;14.88;;;;;;;3.58;98.04;102402.72;5069799;28;20074;-75
2022/01/19 11:42:01;;;;;;;36.20;15.70;;;;;;;3.57;97.82;102411.22;5053737;28;20059;-75
2022/01/19 11:44:32;;;;;;;41.17;15.77;;;;;;;3.58;97.67;102400.16;5064311;28;20565;-75
2022/01/19 11:47:16;;;;;;;42.45;16.35;;;;;;;3.56;97.67;102385.53;5062073;28;20109;-75
2022/01/19 11:49:47;;;;;;;;;;;;;;;3.68;97.67;102380.81;5074470;28;20088;-75
2022/01/19 11:52:15;;;;;;;42.53;16.50;;;;;;;3.60;97.44;102377.13;5056685;28;19912;-74
2022/01/19 11:54:40;;;;;;;39.55;16.40;;;;;;;3.60;97.91;102372.00;5057859;28;20028;-75
2022/01/19 11:57:12;;;;;;;38.70;16.67;;;;;;;3.61;97.69;102366.06;5052911;28;20401;-74
2022/01/19 11:59:38;;;;;;;40.50;16.08;;;;;;;3.63;97.62;102349.00;5063439;28;20048;-74
2022/01/19 12:02:24;;;;;;;43.77;17.37;;;;;;;3.66;97.95;102351.69;5062013;28;20047;-75
2022/01/19 12:05:12;;;;;;;45.08;18.10;;;;;;;3.66;97.18;102353.38;5050495;28;20080;-75
2022/01/19 12:07:53;;;;;;;44.55;17.60;;;;;;;3.65;97.50;102359.31;5053848;28;20024;-75
2022/01/19 12:10:37;;;;;;;40.97;16.85;;;;;;;3.65;97.85;102341.38;5052345;28;20036;-75
2022/01/19 12:16:09;;;;;;;43.50;17.35;;;;;;;3.61;97.07;102327.59;5058987;28;20279;-75
2022/01/19 12:19:00;;;;;;;46.05;17.88;;;;;;;3.70;97.51;102319.28;5055715;28;20032;-75
2022/01/19 12:21:32;;;;;;;36.33;14.90;;;;;;;3.73;97.03;102310.00;5032028;28;20029;-75
2022/01/19 12:24:14;;;;;;;43.42;17.90;;;;;;;3.78;97.29;102317.81;5048432;28;20049;-75
2022/01/19 12:26:57;;;;;;;44.38;17.55;;;;;;;3.83;96.98;102306.84;5049993;28;20098;-75
2022/01/19 12:29:34;;;;;;;44.55;18.13;;;;;;;3.94;96.82;102286.63;5054188;28;20108;-81
2022/01/19 12:32:16;;;;;;;45.08;18.75;;;;;;;4.06;96.77;102281.81;5063374;28;20021;-80
2022/01/19 12:34:55;;;;;;;44.67;19.02;;;;;;;4.18;96.10;102289.81;5070175;28;20035;-81
2022/01/19 12:37:26;;;;;;;46.47;19.02;;;;;;;4.26;95.80;102295.16;5070048;28;20675;-81
2022/01/19 12:39:55;;;;;;;44.78;18.77;;;;;;;4.31;95.63;102299.56;5052002;28;20032;-81
2022/01/19 12:42:27;;;;;;;46.60;18.75;;;;;;;4.30;94.86;102295.25;5049848;28;20032;-81